Time;durP1;ratioP1;P1;durP2;ratioP2;P2;SDS_P1;SDS_P2;PMS_P1;PMS_P2;Temp;Humidity;BMP_temperature;BMP_pressure;BME280_temperature;BME280_humidity;BME280_pressure;Samples;Min_cycle;Max_cycle;Signal;HPM_P1;HPM_P2
2023/04/12 00:00:10;;;;;;;;;;;;;;;18.36;59.01;100552.39;2296861;77;50303;-75
2023/04/12 00:03:12;;;;;;;;;;;;;;;18.36;59.00;100552.39;2297050;77;50722;-75
2023/04/12 00:06:13;;;;;;;;;;;;;;;18.36;59.01;100550.22;2250371;76;51700;-75
2023/04/12 00:09:15;;;;;;;;;;;;;;;18.35;58.93;100542.70;2275828;77;50101;-74
2023/04/12 00:12:18;;;;;;;;;;;;;;;18.35;58.92;100537.34;2297018;76;50749;-75
2023/04/12 00:15:19;;;;;;;;;;;;;;;18.35;58.93;100537.34;2320310;76;50681;-74
2023/04/12 00:18:26;;;;;;;;;;;;;;;18.35;58.90;100540.02;2268791;77;52657;-75
2023/04/12 00:21:27;;;;;;;;;;;;;;;18.35;58.96;100543.22;2299838;77;22949;-74
2023/04/12 00:24:27;;;;;;;;;;;;;;;18.33;58.91;100539.37;2301467;76;22010;-75
2023/04/12 00:27:29;;;;;;;;;;;;;;;18.34;58.86;100538.37;2301035;77;50817;-76
2023/04/12 00:30:31;;;;;;;;;;;;;;;18.33;58.96;100528.66;2274166;77;50983;-75
2023/04/12 00:33:33;;;;;;;;;;;;;;;18.34;58.91;100529.00;2296994;77;50746;-75
2023/04/12 00:36:35;;;;;;;;;;;;;;;18.34;58.96;100523.64;2296752;76;50444;-74
2023/04/12 00:39:36;;;;;;;;;;;;;;;18.34;58.93;100531.67;2297977;76;51542;-74
2023/04/12 00:42:38;;;;;;;;;;;;;;;18.34;58.97;100523.64;2234596;77;52393;-75
2023/04/12 00:45:39;;;;;;;;;;;;;;;18.35;58.90;100527.14;2278602;77;51537;-75
2023/04/12 00:48:41;;;;;;;;;;;;;;;18.35;58.91;100529.30;2325079;76;51585;-75
2023/04/12 00:51:43;;;;;;;;;;;;;;;18.34;58.93;100525.45;2334156;76;50634;-74
2023/04/12 00:54:44;;;;;;;;;;;;;;;18.36;58.92;100540.84;2334069;76;50414;-75
2023/04/12 00:57:46;;;;;;;;;;;;;;;18.35;58.87;100540.02;2334123;76;49901;-74
2023/04/12 01:00:56;;;;;;;;;;;;;;;18.35;58.89;100528.48;2300057;76;50766;-75
2023/04/12 01:03:59;;;;;;;;;;;;;;;18.35;58.87;100527.97;2333046;76;22471;-75
2023/04/12 01:07:02;;;;;;;;;;;;;;;18.34;58.87;100522.30;2333745;76;22364;-74
2023/04/12 01:10:24;;;;;;;;;;;;;;;18.32;58.96;100521.64;2334252;76;50296;-74
2023/04/12 01:13:30;;;;;;;;;;;;;;;18.31;59.01;100517.28;2333821;76;50331;-75
2023/04/12 01:16:33;;;;;;;;;;;;;;;18.32;58.92;100514.95;2296743;76;50694;-74
2023/04/12 01:19:44;;;;;;;;;;;;;;;18.32;58.93;100513.61;2275303;77;51760;-75
2023/04/12 01:23:01;;;;;;;;;;;;;;;18.31;58.88;100501.21;2296959;77;22434;-75
2023/04/12 01:26:14;;;;;;;;;;;;;;;18.31;58.84;100504.41;2296794;76;51440;-75
2023/04/12 01:29:16;;;;;;;;;;;;;;;18.31;58.86;100500.39;2297072;77;50476;-75
2023/04/12 01:32:18;;;;;;;;;;;;;;;18.32;58.86;100495.38;2297014;77;51477;-74
2023/04/12 01:35:20;;;;;;;;;;;;;;;18.32;58.85;100488.16;2296772;77;50726;-77
2023/04/12 01:38:22;;;;;;;;;;;;;;;18.31;58.91;100490.50;2297118;76;51605;-74
2023/04/12 01:41:23;;;;;;;;;;;;;;;18.32;58.84;100484.66;2297022;76;50751;-75
2023/04/12 01:44:25;;;;;;;;;;;;;;;18.31;58.81;100487.82;2275551;77;52552;-74
2023/04/12 01:47:26;;;;;;;;;;;;;;;18.31;58.93;100483.80;2292355;76;50662;-74
2023/04/12 01:50:46;;;;;;;;;;;;;;;18.31;58.86;100482.98;2334096;76;51452;-75
2023/04/12 01:53:48;;;;;;;;;;;;;;;18.30;58.91;100489.36;2333971;76;52783;-75
2023/04/12 01:56:52;;;;;;;;;;;;;;;18.29;58.89;100491.22;2300403;76;50940;-74
2023/04/12 01:59:54;;;;;;;;;;;;;;;18.31;58.89;100493.18;2335313;76;51853;-74
2023/04/12 02:02:56;;;;;;;;;;;;;;;18.31;58.92;100479.78;2335506;76;51378;-74
2023/04/12 02:05:58;;;;;;;;;;;;;;;18.28;58.96;100479.64;2335327;76;50679;-73
2023/04/12 02:09:01;;;;;;;;;;;;;;;18.29;58.93;100485.86;2335550;76;50786;-73
2023/04/12 02:12:03;;;;;;;;;;;;;;;18.29;58.93;100473.80;2335547;76;50333;-74
2023/04/12 02:15:05;;;;;;;;;;;;;;;18.29;58.97;100471.13;2293889;76;50670;-73
2023/04/12 02:18:08;;;;;;;;;;;;;;;18.30;58.87;100467.42;2324420;75;50048;-73
2023/04/12 02:21:09;;;;;;;;;;;;;;;18.31;58.82;100472.27;2342112;75;49469;-74
2023/04/12 02:24:11;;;;;;;;;;;;;;;18.31;58.74;100470.92;2342171;75;50450;-73
2023/04/12 02:27:13;;;;;;;;;;;;;;;18.29;58.73;100461.75;2342074;75;50264;-73
2023/04/12 02:30:14;;;;;;;;;;;;;;;18.28;58.71;100450.19;2342412;75;50638;-74
2023/04/12 02:33:16;;;;;;;;;;;;;;;18.28;58.77;100441.33;2342561;75;51032;-73
2023/04/12 02:36:18;;;;;;;;;;;;;;;18.26;58.86;100439.33;2341895;75;51720;-74
2023/04/12 02:39:20;;;;;;;;;;;;;;;18.27;58.77;100443.69;2336684;75;51432;-74
2023/04/12 02:42:22;;;;;;;;;;;;;;;18.29;58.73;100448.36;2341182;75;50527;-75
2023/04/12 02:45:24;;;;;;;;;;;;;;;18.28;58.70;100440.81;2322699;75;49571;-74
2023/04/12 02:48:25;;;;;;;;;;;;;;;18.27;58.69;100436.48;2281377;75;50768;-73
2023/04/12 02:51:27;;;;;;;;;;;;;;;18.27;58.67;100431.64;2297618;77;51525;-74
2023/04/12 02:54:29;;;;;;;;;;;;;;;18.29;58.59;100424.25;2296965;77;51292;-73
2023/04/12 02:57:30;;;;;;;;;;;;;;;18.27;58.60;100422.27;2239790;77;52543;-74
2023/04/12 03:00:32;;;;;;;;;;;;;;;18.27;58.58;100420.41;2276155;77;50675;-73
2023/04/12 03:03:34;;;;;;;;;;;;;;;18.27;58.58;100424.95;2276033;76;50327;-74
2023/04/12 03:06:35;;;;;;;;;;;;;;;18.27;58.51;100416.91;2297090;76;50034;-74
2023/04/12 03:09:37;;;;;;;;;;;;;;;18.27;58.48;100409.70;2275806;77;51184;-73
2023/04/12 03:12:39;;;;;;;;;;;;;;;18.27;58.54;100404.86;2297292;77;51545;-73
2023/04/12 03:15:42;;;;;;;;;;;;;;;18.26;58.57;100400.02;2313664;76;50799;-73
2023/04/12 03:18:44;;;;;;;;;;;;;;;18.27;58.55;100396.31;2297215;77;50154;-73
2023/04/12 03:21:45;;;;;;;;;;;;;;;18.27;58.66;100388.79;2275851;77;51146;-74
2023/04/12 03:24:48;;;;;;;;;;;;;;;18.26;58.61;100389.30;2275654;77;50700;-73
2023/04/12 03:27:50;;;;;;;;;;;;;;;18.26;58.59;100386.63;2297187;77;51524;-75
2023/04/12 03:30:51;;;;;;;;;;;;;;;18.26;58.65;100379.93;2297222;77;51450;-74
2023/04/12 03:33:53;;;;;;;;;;;;;;;18.25;58.61;100380.93;2281549;76;50942;-74
2023/04/12 03:36:55;;;;;;;;;;;;;;;18.25;58.62;100384.12;2325643;75;50631;-73
2023/04/12 03:39:56;;;;;;;;;;;;;;;18.26;58.59;100379.93;2336515;76;51489;-74
2023/04/12 03:42:58;;;;;;;;;;;;;;;18.25;58.59;100380.93;2341078;75;53447;-74
2023/04/12 03:45:59;;;;;;;;;;;;;;;18.25;58.56;100370.73;2340788;75;51405;-74
2023/04/12 03:49:01;;;;;;;;;;;;;;;18.24;58.56;100364.55;2336574;76;51385;-74
2023/04/12 03:52:02;;;;;;;;;;;;;;;18.25;58.56;100357.34;2336636;76;50237;-73
2023/04/12 03:55:06;;;;;;;;;;;;;;;18.24;58.50;100351.16;2336330;75;51473;-74
2023/04/12 03:58:07;;;;;;;;;;;;;;;18.26;58.48;100337.56;2340710;75;51438;-74
2023/04/12 04:01:09;;;;;;;;;;;;;;;18.25;58.52;100334.06;2336713;75;51550;-74
2023/04/12 04:04:10;;;;;;;;;;;;;;;18.25;58.52;100334.58;2323610;75;50449;-73
2023/04/12 04:07:12;;;;;;;;;;;;;;;18.22;58.60;100336.30;2336330;76;50216;-74
2023/04/12 04:10:14;;;;;;;;;;;;;;;18.22;58.47;100330.42;2336623;75;50305;-74
2023/04/12 04:13:15;;;;;;;;;;;;;;;18.24;58.40;100336.43;2336594;76;50515;-74
2023/04/12 04:16:17;;;;;;;;;;;;;;;18.22;58.47;100324.25;2336223;76;50308;-74
2023/04/12 04:19:19;;;;;;;;;;;;;;;18.23;58.39;100330.73;2341106;75;51458;-74
2023/04/12 04:22:21;;;;;;;;;;;;;;;18.23;58.37;100327.23;2313992;76;52475;-74
2023/04/12 04:25:28;;;;;;;;;;;;;;;18.25;58.38;100334.58;2340619;75;51575;-74
2023/04/12 04:28:26;;;;;;;;;;;;;;;18.22;58.41;100329.09;2337184;75;22277;-74
2023/04/12 04:31:33;;;;;;;;;;;;;;;18.22;58.43;100328.27;2341076;75;51471;-74
2023/04/12 04:34:31;;;;;;;;;;;;;;;18.24;58.52;100339.63;2332477;75;23093;-73
2023/04/12 04:37:37;;;;;;;;;;;;;;;18.22;58.52;100336.30;2298041;76;51520;-73
2023/04/12 04:40:37;;;;;;;;;;;;;;;18.21;58.59;100335.95;2339618;76;22398;-74
2023/04/12 04:43:39;;;;;;;;;;;;;;;18.22;58.50;100325.07;2336544;76;50686;-75
2023/04/12 04:46:41;;;;;;;;;;;;;;;18.20;58.54;100322.26;2336179;75;50283;-74
2023/04/12 04:49:44;;;;;;;;;;;;;;;18.21;58.48;100315.39;2340807;75;50278;-74
2023/04/12 04:52:47;;;;;;;;;;;;;;;18.22;58.48;100317.55;2336406;76;51467;-74
2023/04/12 04:55:48;;;;;;;;;;;;;;;18.21;58.53;100321.23;2340343;75;50285;-74
2023/04/12 04:58:50;;;;;;;;;;;;;;;18.21;58.49;100322.56;2314065;76;51107;-73
2023/04/12 05:01:52;;;;;;;;;;;;;;;18.16;58.38;100319.14;2313641;76;52368;-72
2023/04/12 05:04:55;;;;;;;;;;;;;;;18.17;58.38;100314.61;2325314;75;52284;-72
2023/04/12 05:07:57;;;;;;;;;;;;;;;18.16;58.34;100307.58;2292881;76;51537;-73
2023/04/12 05:10:58;;;;;;;;;;;;;;;18.18;58.14;100300.19;2337170;76;51574;-74
2023/04/12 05:14:00;;;;;;;;;;;;;;;18.15;58.12;100307.27;2313803;76;52540;-73
2023/04/12 05:17:02;;;;;;;;;;;;;;;18.14;57.88;100313.66;2341138;75;51550;-74
2023/04/12 05:20:06;;;;;;;;;;;;;;;18.14;58.03;100307.78;2341460;75;50302;-74
2023/04/12 05:23:08;;;;;;;;;;;;;;;18.15;58.33;100305.41;2340510;75;50287;-71
2023/04/12 05:26:10;;;;;;;;;;;;;;;18.16;59.41;100299.54;2313818;76;51497;-72
2023/04/12 05:29:11;;;;;;;;;;;;;;;18.17;59.11;100303.90;2340959;75;50444;-72
2023/04/12 05:32:13;;;;;;;;;;;;;;;18.19;59.05;100306.70;2341012;75;50601;-73
2023/04/12 05:35:15;;;;;;;;;;;;;;;18.20;59.53;100300.84;2321549;76;50563;-73
2023/04/12 05:38:16;;;;;;;;;;;;;;;18.22;59.45;100302.82;2311352;76;50373;-73
2023/04/12 05:41:18;;;;;;;;;;;;;;;18.25;59.71;100295.23;2341060;75;52490;-72
2023/04/12 05:44:19;;;;;;;;;;;;;;;18.40;59.68;100299.20;2336362;75;50380;-71
2023/04/12 05:47:21;;;;;;;;;;;;;;;18.42;59.59;100290.47;2336507;75;50436;-72
2023/04/12 05:50:22;;;;;;;;;;;;;;;18.48;59.47;100280.84;2336556;76;50728;-72
2023/04/12 05:53:24;;;;;;;;;;;;;;;18.50;59.38;100281.48;2336417;76;50395;-74
2023/04/12 05:56:26;;;;;;;;;;;;;;;18.58;59.19;100276.51;2336285;75;50421;-71
2023/04/12 05:59:27;;;;;;;;;;;;;;;18.61;59.04;100273.44;2336616;76;49999;-72
2023/04/12 06:02:29;;;;;;;;;;;;;;;18.68;58.82;100267.11;2271091;76;51655;-73
2023/04/12 06:05:31;;;;;;;;;;;;;;;18.74;58.70;100262.00;2331280;76;50313;-74
2023/04/12 06:08:33;;;;;;;;;;;;;;;18.77;58.59;100252.27;2297128;76;50259;-73
2023/04/12 06:11:34;;;;;;;;;;;;;;;18.83;58.32;100248.80;2297188;77;51668;-73
2023/04/12 06:14:36;;;;;;;;;;;;;;;18.88;57.95;100240.51;2263645;76;51210;-73
2023/04/12 06:17:37;;;;;;;;;;;;;;;18.90;57.66;100237.09;2264045;77;50375;-73
2023/04/12 06:20:39;;;;;;;;;;;;;;;18.95;57.40;100229.00;2296966;76;50411;-73
2023/04/12 06:23:41;;;;;;;;;;;;;;;18.99;57.18;100222.23;2296989;76;50405;-73
2023/04/12 06:26:45;;;;;;;;;;;;;;;19.00;57.06;100219.33;2238996;77;50720;-73
2023/04/12 06:29:45;;;;;;;;;;;;;;;19.04;56.90;100217.11;2264503;76;22325;-73
2023/04/12 06:32:47;;;;;;;;;;;;;;;19.04;56.79;100211.74;2264005;77;51535;-73
2023/04/12 06:35:49;;;;;;;;;;;;;;;19.06;56.64;100207.84;2312842;76;50614;-74
2023/04/12 06:38:51;;;;;;;;;;;;;;;19.09;56.50;100207.44;2275903;77;50726;-74
2023/04/12 06:41:52;;;;;;;;;;;;;;;19.12;56.36;100200.86;2312240;76;51581;-73
2023/04/12 06:44:54;;;;;;;;;;;;;;;19.14;56.31;100197.47;2309486;76;50639;-72
2023/04/12 06:47:55;;;;;;;;;;;;;;;19.15;56.28;100193.75;2297148;76;50643;-72
2023/04/12 06:50:57;;;;;;;;;;;;;;;19.18;56.26;100192.00;2297197;77;50591;-73
2023/04/12 06:53:59;;;;;;;;;;;;;;;19.25;56.16;100192.87;2333870;76;50611;-73
2023/04/12 06:57:01;;;;;;;;;;;;;;;19.32;56.09;100190.23;2314498;76;50281;-72
2023/04/12 07:00:03;;;;;;;;;;;;;;;19.31;56.26;100185.36;2293537;76;50733;-74
2023/04/12 07:03:04;;;;;;;;;;;;;;;19.33;56.26;100186.00;2318312;75;51727;-71
2023/04/12 07:06:06;;;;;;;;;;;;;;;19.33;56.27;100180.63;2316211;76;51522;-70
2023/04/12 07:09:07;;;;;;;;;;;;;;;19.33;56.25;100180.63;2263999;76;51443;-71
2023/04/12 07:12:09;;;;;;;;;;;;;;;19.34;56.20;100176.94;2264153;77;50117;-72
2023/04/12 07:15:11;;;;;;;;;;;;;;;19.34;56.16;100168.89;2239098;77;51013;-71
2023/04/12 07:18:12;;;;;;;;;;;;;;;19.34;56.04;100169.38;2264156;77;50727;-71
2023/04/12 07:21:16;;;;;;;;;;;;;;;19.34;55.96;100162.67;2264114;77;51370;-71
2023/04/12 07:24:17;;;;;;;;;;;;;;;19.34;55.93;100161.33;2297373;76;25377;-71
2023/04/12 07:27:19;;;;;;;;;;;;;;;19.34;55.82;100164.02;2239826;77;51176;-71
2023/04/12 07:30:20;;;;;;;;;;;;;;;19.31;55.79;100149.15;2300105;76;51490;-71
2023/04/12 07:33:22;;;;;;;;;;;;;;;19.31;55.74;100149.15;2267672;76;50733;-70
2023/04/12 07:36:26;;;;;;;;;;;;;;;19.32;55.68;100152.69;2299720;76;50783;-69
2023/04/12 07:39:28;;;;;;;;;;;;;;;19.31;55.66;100143.78;2337329;75;22602;-70
2023/04/12 07:42:30;;;;;;;;;;;;;;;19.31;55.61;100140.28;2339481;75;50634;-72
2023/04/12 07:45:31;;;;;;;;;;;;;;;19.30;55.63;100130.07;2337615;75;50800;-71
2023/04/12 07:48:33;;;;;;;;;;;;;;;19.29;55.59;100135.13;2336834;75;51447;-71
2023/04/12 07:51:35;;;;;;;;;;;;;;;19.29;55.52;100122.21;2341370;75;50034;-70
2023/04/12 07:54:36;;;;;;;;;;;;;;;19.28;55.52;100122.73;2342207;75;50618;-71
2023/04/12 07:57:38;;;;;;;;;;;;;;;19.27;55.55;100124.30;2342957;75;50684;-72
2023/04/12 08:00:39;;;;;;;;;;;;;;;19.26;55.49;100110.55;2341238;75;50242;-70
2023/04/12 08:03:41;;;;;;;;;;;;;;;19.25;55.51;100106.22;2338085;75;51659;-70
2023/04/12 08:06:43;;;;;;;;;;;;;;;19.25;55.46;100104.36;2303127;75;50065;-71
2023/04/12 08:09:44;;;;;;;;;;;;;;;19.24;55.41;100095.16;2297043;77;50760;-72
2023/04/12 08:12:46;;;;;;;;;;;;;;;19.23;55.43;100096.20;2297255;77;50482;-71
2023/04/12 08:15:48;;;;;;;;;;;;;;;19.22;55.39;100091.87;2239053;76;51263;-71
2023/04/12 08:18:49;;;;;;;;;;;;;;;19.19;55.37;100088.23;2275902;77;50683;-70
2023/04/12 08:21:51;;;;;;;;;;;;;;;19.18;55.40;100079.88;2275809;76;52324;-71
2023/04/12 08:24:53;;;;;;;;;;;;;;;19.15;55.36;100071.72;2275577;77;53713;-70
2023/04/12 08:27:54;;;;;;;;;;;;;;;19.16;55.30;100074.70;2239440;76;50990;-71
2023/04/12 08:30:56;;;;;;;;;;;;;;;19.13;55.32;100071.09;2297135;77;51454;-70
2023/04/12 08:33:58;;;;;;;;;;;;;;;19.12;55.31;100068.93;2299958;76;50368;-72
2023/04/12 08:37:00;;;;;;;;;;;;;;;19.11;55.28;100059.73;2285924;76;50334;-72
2023/04/12 08:40:03;;;;;;;;;;;;;;;19.11;55.36;100060.59;2274929;76;52300;-70
2023/04/12 08:43:06;;;;;;;;;;;;;;;19.11;55.27;100057.91;2300519;76;51532;-71
2023/04/12 08:46:08;;;;;;;;;;;;;;;19.10;55.25;100053.55;2333943;76;50731;-69
2023/04/12 08:49:10;;;;;;;;;;;;;;;19.08;55.31;100048.08;2334330;76;50371;-70
2023/04/12 08:52:12;;;;;;;;;;;;;;;19.06;55.31;100040.73;2300141;76;51012;-70
2023/04/12 08:55:13;;;;;;;;;;;;;;;19.03;55.36;100033.10;2299838;76;51546;-70
2023/04/12 08:58:15;;;;;;;;;;;;;;;19.00;55.44;100027.63;2300355;76;51539;-71
2023/04/12 09:01:17;;;;;;;;;;;;;;;18.98;55.42;100030.20;2334426;76;50344;-71
2023/04/12 09:04:19;;;;;;;;;;;;;;;18.94;55.45;100017.72;2265073;76;52465;-70
2023/04/12 09:07:26;;;;;;;;;;;;;;;18.96;55.40;100025.54;2287665;76;51607;-70
2023/04/12 09:10:33;;;;;;;;;;;;;;;18.96;55.39;100015.67;2334327;76;22421;-70
2023/04/12 09:13:40;;;;;;;;;;;;;;;18.93;55.48;100017.39;2334339;76;50513;-72
2023/04/12 09:16:40;;;;;;;;;;;;;;;18.95;55.40;100008.63;2333076;76;22316;-72
2023/04/12 09:19:42;;;;;;;;;;;;;;;18.94;55.35;100002.97;2334442;76;50428;-70
2023/04/12 09:22:44;;;;;;;;;;;;;;;18.92;55.38;99997.80;2334471;76;51523;-70
2023/04/12 09:25:51;;;;;;;;;;;;;;;18.94;55.35;100004.31;2334200;76;50462;-71
2023/04/12 09:28:52;;;;;;;;;;;;;;;18.91;55.36;99997.50;2334527;76;22698;-70
2023/04/12 09:31:55;;;;;;;;;;;;;;;18.88;55.36;99997.91;2300226;76;50814;-70
2023/04/12 09:34:57;;;;;;;;;;;;;;;18.88;55.42;99981.83;2324840;76;50275;-70
2023/04/12 09:37:58;;;;;;;;;;;;;;;18.84;55.51;99979.22;2276098;77;51468;-70
2023/04/12 09:41:19;;;;;;;;;;;;;;;18.80;55.53;99969.91;2232409;77;51667;-70
2023/04/12 09:44:29;;;;;;;;;;;;;;;18.80;55.62;99960.53;2275715;77;51491;-71
2023/04/12 09:47:40;;;;;;;;;;;;;;;18.79;55.61;99958.89;2297087;77;51638;-72
2023/04/12 09:50:42;;;;;;;;;;;;;;;18.72;55.74;99958.83;2297403;77;50511;-74
2023/04/12 09:53:43;;;;;;;;;;;;;;;18.70;55.82;99942.63;2275782;77;52295;-69
2023/04/12 09:56:45;;;;;;;;;;;;;;;18.67;55.87;99939.02;2297643;77;50243;-70
2023/04/12 09:59:48;;;;;;;;;;;;;;;18.65;55.98;99937.91;2297218;76;51421;-70
2023/04/12 10:02:50;;;;;;;;;;;;;;;18.62;55.97;99923.54;2297214;77;50452;-70
2023/04/12 10:05:51;;;;;;;;;;;;;;;18.61;56.03;99919.22;2291248;76;51794;-71
2023/04/12 10:08:53;;;;;;;;;;;;;;;18.61;56.05;99912.52;2336676;75;51433;-71
2023/04/12 10:11:56;;;;;;;;;;;;;;;18.60;56.07;99906.86;2341279;75;50518;-70
2023/04/12 10:14:58;;;;;;;;;;;;;;;18.59;56.04;99905.19;2336352;75;50463;-70
2023/04/12 10:18:00;;;;;;;;;;;;;;;18.60;56.05;99889.45;2340948;75;51100;-72
2023/04/12 10:21:02;;;;;;;;;;;;;;;18.61;56.03;99880.89;2336651;75;51506;-71
2023/04/12 10:24:05;;;;;;;;;;;;;;;18.60;56.05;99873.86;2336480;76;51525;-71
2023/04/12 10:27:07;;;;;;;;;;;;;;;18.58;56.08;99870.58;2336569;75;51577;-70
2023/04/12 10:30:28;;;;;;;;;;;;;;;18.58;56.00;99864.70;2341035;75;51474;-71
2023/04/12 10:33:32;;;;;;;;;;;;;;;18.60;56.01;99849.26;2333424;76;51534;-70
2023/04/12 10:36:52;;;;;;;;;;;;;;;18.63;55.89;99848.03;2308277;76;51495;-69
2023/04/12 10:39:54;;;;;;;;;;;;;;;18.63;55.89;99846.69;2297049;77;51522;-70
2023/04/12 10:43:14;;;;;;;;;;;;;;;18.62;56.01;99845.02;2275833;77;51249;-70
2023/04/12 10:46:36;;;;;;;;;;;;;;;18.63;56.01;99830.09;2296906;77;51539;-71
2023/04/12 10:49:38;;;;;;;;;;;;;;;18.65;55.90;99835.23;2297512;77;24514;-71
2023/04/12 10:52:40;;;;;;;;;;;;;;;18.64;55.91;99817.52;2297258;77;50655;-70
2023/04/12 10:55:43;;;;;;;;;;;;;;;18.61;55.91;99810.70;2275392;77;49627;-71
2023/04/12 10:58:49;;;;;;;;;;;;;;;18.62;55.91;99803.48;2297158;77;50334;-70
2023/04/12 11:02:10;;;;;;;;;;;;;;;18.60;55.85;99797.50;2297231;77;50805;-70
2023/04/12 11:05:13;;;;;;;;;;;;;;;18.62;55.85;99790.91;2309271;76;51567;-72
2023/04/12 11:08:14;;;;;;;;;;;;;;;18.62;55.83;99792.77;2275870;77;51188;-69
2023/04/12 11:11:21;;;;;;;;;;;;;;;18.60;55.77;99783.62;2275818;77;50621;-69
2023/04/12 11:14:30;;;;;;;;;;;;;;;18.62;55.77;99785.55;2275811;77;50662;-70
2023/04/12 11:17:32;;;;;;;;;;;;;;;18.62;55.78;99784.21;2297177;76;51577;-70
2023/04/12 11:20:34;;;;;;;;;;;;;;;18.60;55.73;99766.69;2232633;77;50342;-70
2023/04/12 11:23:36;;;;;;;;;;;;;;;18.61;55.62;99757.13;2297187;77;50314;-70
2023/04/12 11:26:38;;;;;;;;;;;;;;;18.60;55.66;99758.16;2296789;76;52207;-70
2023/04/12 11:29:39;;;;;;;;;;;;;;;18.61;55.73;99751.77;2296983;77;51452;-72
2023/04/12 11:32:43;;;;;;;;;;;;;;;18.64;55.63;99762.59;2275729;77;51773;-71
2023/04/12 11:35:44;;;;;;;;;;;;;;;18.62;55.59;99754.73;2309659;76;51476;-72
2023/04/12 11:38:46;;;;;;;;;;;;;;;18.63;55.57;99741.67;2297177;77;50751;-71
2023/04/12 11:41:50;;;;;;;;;;;;;;;18.63;55.52;99738.99;2297027;76;50373;-70
2023/04/12 11:44:52;;;;;;;;;;;;;;;18.63;55.45;99733.63;2260828;77;52609;-70
2023/04/12 11:47:56;;;;;;;;;;;;;;;18.63;55.34;99742.19;2297067;77;51428;-71
2023/04/12 11:50:57;;;;;;;;;;;;;;;18.63;55.51;99730.13;2297413;77;22872;-69
2023/04/12 11:53:58;;;;;;;;;;;;;;;18.65;55.30;99722.20;2296926;76;50270;-71
2023/04/12 11:57:00;;;;;;;;;;;;;;;18.65;55.19;99725.38;2275559;77;51105;-70
2023/04/12 12:00:05;;;;;;;;;;;;;;;18.64;55.13;99709.00;2275871;77;52686;-71
2023/04/12 12:03:06;;;;;;;;;;;;;;;18.62;55.35;99709.71;2297324;77;22419;-71
2023/04/12 12:06:07;;;;;;;;;;;;;;;18.60;55.38;99695.20;2318982;76;51568;-70
2023/04/12 12:09:09;;;;;;;;;;;;;;;18.59;55.44;99692.20;2336573;75;50709;-71
2023/04/12 12:12:11;;;;;;;;;;;;;;;18.58;55.45;99679.02;2336502;76;50293;-71
2023/04/12 12:15:14;;;;;;;;;;;;;;;18.58;55.46;99684.38;2331540;76;51519;-71
2023/04/12 12:18:16;;;;;;;;;;;;;;;18.54;55.39;99665.20;2335133;76;51596;-70
2023/04/12 12:21:18;;;;;;;;;;;;;;;18.55;55.56;99655.30;2275117;76;52414;-70
2023/04/12 12:24:19;;;;;;;;;;;;;;;18.50;55.66;99667.48;2300078;76;50388;-71
2023/04/12 12:27:25;;;;;;;;;;;;;;;18.55;55.51;99652.13;2334272;76;50329;-71
2023/04/12 12:30:26;;;;;;;;;;;;;;;18.54;55.42;99639.75;2334320;76;50294;-70
2023/04/12 12:33:30;;;;;;;;;;;;;;;18.50;55.57;99628.64;2300062;76;50230;-72
2023/04/12 12:36:32;;;;;;;;;;;;;;;18.55;55.39;99636.55;2333056;76;51488;-70
2023/04/12 12:39:35;;;;;;;;;;;;;;;18.53;55.42;99617.20;2334497;76;51457;-71
2023/04/12 12:42:38;;;;;;;;;;;;;;;18.50;55.54;99614.42;2302541;76;50252;-71
2023/04/12 12:45:39;;;;;;;;;;;;;;;18.50;55.44;99609.06;2280491;76;51294;-71
2023/04/12 12:48:41;;;;;;;;;;;;;;;18.52;55.54;99605.64;2306478;76;50432;-70
2023/04/12 12:51:43;;;;;;;;;;;;;;;18.52;55.61;99613.67;2297287;76;50323;-71
2023/04/12 12:54:44;;;;;;;;;;;;;;;18.55;55.51;99607.08;2296902;76;50402;-71
2023/04/12 12:57:46;;;;;;;;;;;;;;;18.52;55.61;99596.78;2275834;77;51224;-71
2023/04/12 13:00:47;;;;;;;;;;;;;;;18.55;55.56;99603.91;2275770;77;50405;-70
2023/04/12 13:03:49;;;;;;;;;;;;;;;18.56;55.30;99599.37;2297089;77;50223;-71
2023/04/12 13:06:51;;;;;;;;;;;;;;;18.56;55.43;99587.31;2276106;76;50342;-71
2023/04/12 13:09:53;;;;;;;;;;;;;;;18.55;55.30;99585.65;2275755;76;52431;-71
2023/04/12 13:12:54;;;;;;;;;;;;;;;18.55;55.46;99584.31;2275927;77;51479;-71
2023/04/12 13:15:56;;;;;;;;;;;;;;;18.53;55.41;99567.13;2313503;76;51486;-69
2023/04/12 13:18:58;;;;;;;;;;;;;;;18.48;55.41;99577.64;2305695;76;53447;-73
2023/04/12 13:21:59;;;;;;;;;;;;;;;18.50;55.43;99565.69;2314171;76;52477;-72
2023/04/12 13:25:01;;;;;;;;;;;;;;;18.50;55.33;99556.31;2336441;76;51415;-71
2023/04/12 13:28:02;;;;;;;;;;;;;;;18.47;55.47;99550.03;2341030;75;52085;-71
2023/04/12 13:31:04;;;;;;;;;;;;;;;18.52;55.32;99548.57;2341079;75;51496;-71
2023/04/12 13:34:06;;;;;;;;;;;;;;;18.48;55.53;99542.81;2313956;75;51189;-71
2023/04/12 13:37:08;;;;;;;;;;;;;;;18.45;55.53;99538.70;2341047;75;50628;-70
2023/04/12 13:40:09;;;;;;;;;;;;;;;18.47;55.57;99536.64;2336468;76;50817;-72
2023/04/12 13:43:11;;;;;;;;;;;;;;;18.52;55.52;99521.78;2341249;75;50225;-70
2023/04/12 13:46:13;;;;;;;;;;;;;;;18.50;55.48;99535.41;2316870;75;51144;-70
2023/04/12 13:49:14;;;;;;;;;;;;;;;18.48;55.45;99515.52;2312996;76;50541;-70
2023/04/12 13:52:16;;;;;;;;;;;;;;;18.47;55.28;99515.22;2341009;75;50244;-71
2023/04/12 13:55:17;;;;;;;;;;;;;;;18.46;55.20;99514.08;2340624;75;50033;-71
2023/04/12 13:58:19;;;;;;;;;;;;;;;18.43;55.33;99513.16;2336869;76;50652;-71
2023/04/12 14:01:22;;;;;;;;;;;;;;;18.42;55.27;99506.98;2336863;76;50358;-71
2023/04/12 14:04:25;;;;;;;;;;;;;;;18.37;55.27;99502.77;2336660;76;50315;-71
2023/04/12 14:07:28;;;;;;;;;;;;;;;18.40;55.25;99505.03;2336854;76;50794;-70
2023/04/12 14:10:29;;;;;;;;;;;;;;;18.43;55.30;99489.87;2302409;76;52448;-71
2023/04/12 14:13:31;;;;;;;;;;;;;;;18.38;55.19;99489.67;2341283;75;51583;-70
2023/04/12 14:16:33;;;;;;;;;;;;;;;18.38;55.26;99487.00;2322179;75;50535;-71
2023/04/12 14:19:34;;;;;;;;;;;;;;;18.40;55.38;99476.91;2341392;75;50779;-72
2023/04/12 14:22:36;;;;;;;;;;;;;;;18.39;55.38;99482.46;2336975;76;51500;-71
2023/04/12 14:25:38;;;;;;;;;;;;;;;18.39;55.52;99485.14;2341163;75;51597;-71
2023/04/12 14:28:39;;;;;;;;;;;;;;;18.37;55.55;99473.81;2341702;75;50695;-70
2023/04/12 14:31:41;;;;;;;;;;;;;;;18.39;55.58;99483.28;2341622;75;51460;-72
2023/04/12 14:34:43;;;;;;;;;;;;;;;18.41;55.52;99483.89;2342901;75;51845;-71
2023/04/12 14:37:44;;;;;;;;;;;;;;;18.39;55.52;99480.59;2339106;76;50440;-71
2023/04/12 14:40:46;;;;;;;;;;;;;;;18.38;55.66;99482.98;2337895;75;50626;-70
2023/04/12 14:43:48;;;;;;;;;;;;;;;18.35;55.80;99477.23;2337205;76;50653;-71
2023/04/12 14:46:50;;;;;;;;;;;;;;;18.37;55.73;99484.52;2279047;76;51469;-71
2023/04/12 14:49:52;;;;;;;;;;;;;;;18.40;55.62;99482.27;2304164;76;51521;-71
2023/04/12 14:52:53;;;;;;;;;;;;;;;18.40;55.63;99481.45;2336203;76;50805;-71
2023/04/12 14:55:55;;;;;;;;;;;;;;;18.36;55.64;99486.38;2285163;77;50401;-71
2023/04/12 14:58:56;;;;;;;;;;;;;;;18.31;55.74;99483.51;2251888;77;51292;-72
2023/04/12 15:01:58;;;;;;;;;;;;;;;18.30;55.80;99479.20;2279615;76;50333;-72
2023/04/12 15:05:05;;;;;;;;;;;;;;;18.39;55.66;99479.26;2276257;77;50518;-72
2023/04/12 15:08:03;;;;;;;;;;;;;;;18.48;55.45;99491.41;2275886;76;22324;-71
2023/04/12 15:11:08;;;;;;;;;;;;;;;18.47;55.48;99496.95;2250909;77;50972;-71
2023/04/12 15:14:13;;;;;;;;;;;;;;;18.39;55.65;99505.22;2297159;76;51633;-71
2023/04/12 15:17:13;;;;;;;;;;;;;;;18.39;55.66;99507.38;2306246;76;22388;-71
2023/04/12 15:20:16;;;;;;;;;;;;;;;18.39;55.76;99507.38;2340999;75;50453;-72
2023/04/12 15:23:17;;;;;;;;;;;;;;;18.40;55.72;99502.34;2339467;75;52394;-73
2023/04/12 15:26:19;;;;;;;;;;;;;;;18.36;55.79;99513.16;2301043;76;52537;-72
2023/04/12 15:29:25;;;;;;;;;;;;;;;18.37;55.63;99520.19;2318712;75;50176;-74
2023/04/12 15:32:26;;;;;;;;;;;;;;;18.38;56.05;99519.14;2325709;76;22336;-72
2023/04/12 15:35:28;;;;;;;;;;;;;;;18.39;56.26;99519.44;2298156;76;52386;-76
2023/04/12 15:38:30;;;;;;;;;;;;;;;18.41;56.34;99517.38;2291491;76;51403;-72
2023/04/12 15:41:36;;;;;;;;;;;;;;;18.40;55.90;99517.08;2289495;76;50708;-73